createdAt,value
2018-06-20T00:00:29.520Z,96049.00
2018-06-20T00:03:01.180Z,96040.00
2018-06-20T00:05:33.008Z,96045.00
2018-06-20T00:08:04.734Z,96041.00
2018-06-20T00:10:36.172Z,96037.00
2018-06-20T00:13:07.601Z,96038.00
2018-06-20T00:15:38.875Z,96034.00
2018-06-20T00:18:10.132Z,96036.00
2018-06-20T00:20:41.032Z,96043.00
2018-06-20T00:23:12.556Z,96045.00
2018-06-20T00:25:44.168Z,96041.00
2018-06-20T00:28:32.511Z,96045.00
2018-06-20T00:31:04.094Z,96037.00
2018-06-20T00:33:35.968Z,96041.00
2018-06-20T00:36:07.782Z,96040.00
2018-06-20T00:38:39.531Z,96036.00
2018-06-20T00:41:11.272Z,96033.00
2018-06-20T00:43:43.119Z,96035.00
2018-06-20T00:46:14.822Z,96038.00
2018-06-20T00:48:46.635Z,96034.00
2018-06-20T00:51:18.338Z,96034.00
2018-06-20T00:53:50.086Z,96042.00
2018-06-20T00:56:26.211Z,96038.00
2018-06-20T00:58:58.009Z,96039.00
2018-06-20T01:01:29.895Z,96035.00
2018-06-20T01:04:01.325Z,96037.00
2018-06-20T01:06:32.883Z,96038.00
2018-06-20T01:09:08.247Z,96040.00
2018-06-20T01:11:40.057Z,96035.00
2018-06-20T01:14:11.970Z,96035.00
2018-06-20T01:16:43.716Z,96036.00
2018-06-20T01:19:15.563Z,96035.00
2018-06-20T01:21:47.357Z,96031.00
2018-06-20T01:24:19.123Z,96026.00
2018-06-20T01:26:51.123Z,96026.00
2018-06-20T01:29:22.899Z,96022.00
2018-06-20T01:31:54.775Z,96016.00
2018-06-20T01:34:26.151Z,96018.00
2018-06-20T01:36:57.764Z,96013.00
2018-06-20T01:39:29.612Z,96014.00
2018-06-20T01:42:01.359Z,96015.00
2018-06-20T01:44:33.187Z,96012.00
2018-06-20T01:47:04.940Z,96016.00
2018-06-20T01:49:36.700Z,96015.00
2018-06-20T01:52:08.487Z,96015.00
2018-06-20T01:54:40.253Z,96013.00
2018-06-20T01:57:11.967Z,96014.00
2018-06-20T01:59:43.787Z,96011.00
2018-06-20T02:02:15.551Z,96012.00
2018-06-20T02:04:47.555Z,96020.00
2018-06-20T02:07:19.383Z,96018.00
2018-06-20T02:09:51.161Z,96022.00
2018-06-20T02:12:22.879Z,96020.00
2018-06-20T02:14:54.683Z,96022.00
2018-06-20T02:17:26.382Z,96027.00
2018-06-20T02:19:58.126Z,96023.00
2018-06-20T02:22:32.651Z,96029.00
2018-06-20T02:25:04.494Z,96028.00
2018-06-20T02:27:36.220Z,96023.00
2018-06-20T02:30:08.058Z,96026.00
2018-06-20T02:32:39.335Z,96025.00
2018-06-20T02:35:10.896Z,96030.00
2018-06-20T02:37:42.698Z,96031.00
2018-06-20T02:40:14.488Z,96035.00
2018-06-20T02:42:46.227Z,96035.00
2018-06-20T02:45:17.883Z,96036.00
2018-06-20T02:47:49.383Z,96038.00
2018-06-20T02:50:21.129Z,96042.00
2018-06-20T02:52:52.895Z,96037.00
2018-06-20T02:55:24.651Z,96038.00
2018-06-20T02:57:56.854Z,96039.00
2018-06-20T03:00:28.626Z,96040.00
2018-06-20T03:03:00.371Z,96038.00
2018-06-20T03:05:32.691Z,96036.00
2018-06-20T03:08:04.451Z,96041.00
2018-06-20T03:10:35.781Z,96042.00
2018-06-20T03:13:07.611Z,96038.00
2018-06-20T03:15:39.532Z,96030.00
2018-06-20T03:18:11.244Z,96032.00
2018-06-20T03:20:43.139Z,96035.00
2018-06-20T03:23:14.847Z,96032.00
2018-06-20T03:25:46.761Z,96033.00
2018-06-20T03:28:18.516Z,96033.00
2018-06-20T03:30:50.275Z,96038.00
2018-06-20T03:33:22.080Z,96033.00
2018-06-20T03:35:53.947Z,96033.00
2018-06-20T03:38:26.063Z,96035.00
2018-06-20T03:40:57.921Z,96031.00
2018-06-20T03:43:29.730Z,96029.00
2018-06-20T03:46:01.516Z,96034.00
2018-06-20T03:48:33.254Z,96029.00
2018-06-20T03:51:05.053Z,96031.00
2018-06-20T03:53:36.758Z,96033.00
2018-06-20T03:56:08.669Z,96034.00
2018-06-20T03:58:40.427Z,96032.00
2018-06-20T04:01:12.203Z,96027.00
2018-06-20T04:03:44.046Z,96028.00
2018-06-20T04:06:15.817Z,96027.00
2018-06-20T04:08:47.555Z,96033.00
2018-06-20T04:11:19.327Z,96025.00
2018-06-20T04:13:51.018Z,96025.00
2018-06-20T04:16:22.780Z,96028.00
2018-06-20T04:18:54.170Z,96027.00
2018-06-20T04:21:25.737Z,96030.00
2018-06-20T04:23:57.487Z,96035.00
2018-06-20T04:26:29.253Z,96031.00
2018-06-20T04:29:01.287Z,96028.00
2018-06-20T04:31:33.090Z,96030.00
2018-06-20T04:34:04.860Z,96030.00
2018-06-20T04:36:36.295Z,96032.00
2018-06-20T04:39:11.201Z,96028.00
2018-06-20T04:41:43.169Z,96029.00
2018-06-20T04:44:15.007Z,96031.00
2018-06-20T04:46:46.938Z,96032.00
2018-06-20T04:49:18.825Z,96034.00
2018-06-20T04:51:50.761Z,96027.00
2018-06-20T04:54:22.691Z,96028.00
2018-06-20T04:56:54.742Z,96032.00
2018-06-20T04:59:26.539Z,96028.00
2018-06-20T05:01:58.404Z,96033.00
2018-06-20T05:04:30.287Z,96031.00
2018-06-20T05:07:02.185Z,96028.00
2018-06-20T05:09:34.033Z,96022.00
2018-06-20T05:12:05.965Z,96022.00
2018-06-20T05:14:37.824Z,96025.00
2018-06-20T05:17:09.686Z,96026.00
2018-06-20T05:19:41.616Z,96021.00
2018-06-20T05:22:13.464Z,96017.00
2018-06-20T05:24:45.280Z,96023.00
2018-06-20T05:27:17.174Z,96017.00
2018-06-20T05:29:48.971Z,96017.00
2018-06-20T05:32:20.911Z,96013.00
2018-06-20T05:34:52.851Z,96015.00
2018-06-20T05:37:24.828Z,96016.00
2018-06-20T05:39:56.659Z,96012.00
2018-06-20T05:42:28.540Z,96010.00
2018-06-20T05:45:00.396Z,96012.00
2018-06-20T05:47:32.291Z,96008.00
2018-06-20T05:50:04.221Z,96006.00
2018-06-20T05:52:36.127Z,96005.00
2018-06-20T05:55:08.175Z,96005.00
2018-06-20T05:57:40.087Z,96003.00
2018-06-20T06:00:11.892Z,95999.00
2018-06-20T06:02:43.758Z,95996.00
2018-06-20T06:05:15.683Z,95993.00
2018-06-20T06:07:47.527Z,95985.00
2018-06-20T06:10:19.793Z,95981.00
2018-06-20T06:12:51.675Z,95984.00
2018-06-20T06:15:23.508Z,95979.00
2018-06-20T06:17:55.391Z,95976.00
2018-06-20T06:20:27.728Z,95974.00
2018-06-20T06:22:59.660Z,95975.00
2018-06-20T06:25:31.534Z,95966.00
2018-06-20T06:28:03.489Z,95968.00
2018-06-20T06:30:35.336Z,95966.00
2018-06-20T06:33:07.256Z,95968.00
2018-06-20T06:35:39.109Z,95968.00
2018-06-20T06:38:11.122Z,95962.00
2018-06-20T06:40:43.051Z,95960.00
2018-06-20T06:43:14.972Z,95956.00
2018-06-20T06:45:46.943Z,95965.00
2018-06-20T06:48:18.980Z,95959.00
2018-06-20T06:50:50.839Z,95959.00
2018-06-20T06:53:22.788Z,95957.00
2018-06-20T06:55:54.888Z,95951.00
2018-06-20T06:58:26.886Z,95953.00
2018-06-20T07:00:58.813Z,95952.00
2018-06-20T07:03:30.724Z,95943.00
2018-06-20T07:06:02.593Z,95947.00
2018-06-20T07:08:34.554Z,95946.00
2018-06-20T07:11:06.411Z,95944.00
2018-06-20T07:13:38.337Z,95939.00
2018-06-20T07:16:10.313Z,95937.00
2018-06-20T07:18:42.236Z,95937.00
2018-06-20T07:21:14.125Z,95932.00
2018-06-20T07:23:46.000Z,95929.00
2018-06-20T07:26:17.845Z,95924.00
2018-06-20T07:28:49.707Z,95919.00
2018-06-20T07:31:21.519Z,95914.00
2018-06-20T07:33:53.611Z,95914.00
2018-06-20T07:36:25.549Z,95907.00
2018-06-20T07:38:57.436Z,95902.00
2018-06-20T07:41:29.315Z,95898.00
2018-06-20T07:44:01.219Z,95896.00
2018-06-20T07:46:33.026Z,95898.00
2018-06-20T07:49:04.927Z,95900.00
2018-06-20T07:51:36.727Z,95895.00
2018-06-20T07:54:08.604Z,95898.00
2018-06-20T07:56:40.376Z,95898.00
2018-06-20T07:59:16.113Z,95892.00
2018-06-20T08:03:08.244Z,95896.00
2018-06-20T08:05:45.349Z,95892.00
2018-06-20T08:08:22.139Z,95888.00
2018-06-20T08:10:59.156Z,95892.00
2018-06-20T08:13:36.144Z,95884.00
2018-06-20T08:16:13.015Z,95877.00
2018-06-20T08:18:49.479Z,95878.00
2018-06-20T08:21:21.570Z,95874.00
2018-06-20T08:23:53.467Z,95871.00
2018-06-20T08:26:25.330Z,95870.00
2018-06-20T08:28:57.191Z,95866.00
2018-06-20T08:31:29.042Z,95864.00
2018-06-20T08:34:00.887Z,95860.00
2018-06-20T08:36:32.817Z,95856.00
2018-06-20T08:39:05.979Z,95855.00
2018-06-20T08:41:37.921Z,95851.00
2018-06-20T08:44:09.764Z,95848.00
2018-06-20T08:46:41.596Z,95847.00
2018-06-20T08:49:13.492Z,95843.00
2018-06-20T08:51:45.320Z,95839.00
2018-06-20T08:54:16.638Z,95831.00
2018-06-20T08:56:48.316Z,95831.00
2018-06-20T08:59:19.651Z,95830.00
2018-06-20T09:01:51.251Z,95828.00
2018-06-20T09:04:28.146Z,95826.00
2018-06-20T09:07:05.152Z,95816.00
2018-06-20T09:09:42.123Z,95819.00
2018-06-20T09:12:18.871Z,95815.00
2018-06-20T09:14:55.579Z,95811.00
2018-06-20T09:17:32.552Z,95805.00
2018-06-20T09:20:06.075Z,95806.00
2018-06-20T09:22:38.912Z,95806.00
2018-06-20T09:25:10.687Z,95804.00
2018-06-20T09:27:42.508Z,95801.00
2018-06-20T09:30:14.323Z,95798.00
2018-06-20T09:32:46.838Z,95799.00
2018-06-20T09:35:18.630Z,95791.00
2018-06-20T09:37:50.732Z,95790.00
2018-06-20T09:40:22.572Z,95792.00
2018-06-20T09:42:54.793Z,95786.00
2018-06-20T09:45:26.944Z,95782.00
2018-06-20T09:47:58.831Z,95788.00
2018-06-20T09:50:35.723Z,95776.00
2018-06-20T09:53:07.741Z,95779.00
2018-06-20T09:55:39.933Z,95769.00
2018-06-20T09:58:11.851Z,95771.00
2018-06-20T10:00:48.424Z,95774.00
2018-06-20T10:03:25.149Z,95769.00
2018-06-20T10:06:02.064Z,95770.00
2018-06-20T10:08:38.998Z,95765.00
2018-06-20T10:11:16.011Z,95766.00
2018-06-20T10:13:49.145Z,95753.00
2018-06-20T10:16:20.608Z,95754.00
2018-06-20T10:18:52.362Z,95749.00
2018-06-20T10:21:24.407Z,95748.00
2018-06-20T10:23:56.362Z,95738.00
2018-06-20T10:26:27.903Z,95741.00
2018-06-20T10:28:59.268Z,95736.00
2018-06-20T10:31:31.001Z,95738.00
2018-06-20T10:34:03.027Z,95734.00
2018-06-20T10:36:35.101Z,95733.00
2018-06-20T10:39:10.595Z,95723.00
2018-06-20T10:41:42.598Z,95722.00
2018-06-20T10:44:15.776Z,95718.00
2018-06-20T10:46:52.662Z,95710.00
2018-06-20T10:49:24.673Z,95709.00
2018-06-20T10:51:56.651Z,95705.00
2018-06-20T10:54:28.796Z,95704.00
2018-06-20T10:57:05.530Z,95700.00
2018-06-20T10:59:42.415Z,95699.00
2018-06-20T11:02:19.434Z,95694.00
2018-06-20T11:04:56.376Z,95697.00
2018-06-20T11:07:33.203Z,95693.00
2018-06-20T11:10:10.227Z,95689.00
2018-06-20T11:13:16.359Z,95684.00
2018-06-20T11:15:48.335Z,95676.00
2018-06-20T11:18:20.283Z,95674.00
2018-06-20T11:20:57.301Z,95669.00
2018-06-20T11:23:29.520Z,95658.00
2018-06-20T11:26:01.475Z,95656.00
2018-06-20T11:28:33.394Z,95654.00
2018-06-20T11:31:07.764Z,95649.00
2018-06-20T11:33:42.511Z,95641.00
2018-06-20T11:36:14.452Z,95641.00
2018-06-20T11:38:46.325Z,95634.00
2018-06-20T11:41:18.325Z,95627.00
2018-06-20T11:43:50.992Z,95621.00
2018-06-20T11:46:28.841Z,95622.00
2018-06-20T11:49:00.859Z,95619.00
2018-06-20T11:51:33.375Z,95614.00
2018-06-20T11:54:09.888Z,95613.00
2018-06-20T11:56:41.535Z,95602.00
2018-06-20T11:59:18.147Z,95603.00
2018-06-20T12:01:55.077Z,95599.00
2018-06-20T12:04:32.140Z,95600.00
2018-06-20T12:07:09.108Z,95591.00
2018-06-20T12:09:45.551Z,95591.00
2018-06-20T12:12:22.173Z,95590.00
2018-06-20T12:14:58.987Z,95589.00
2018-06-20T12:17:35.931Z,95581.00
2018-06-20T12:20:13.055Z,95582.00
2018-06-20T12:22:50.052Z,95575.00
2018-06-20T12:25:27.166Z,95571.00
2018-06-20T12:28:04.099Z,95568.00
2018-06-20T12:30:41.124Z,95565.00
2018-06-20T12:33:18.272Z,95553.00
2018-06-20T12:35:54.990Z,95550.00
2018-06-20T12:38:32.027Z,95549.00
2018-06-20T12:41:09.004Z,95548.00
2018-06-20T12:43:46.465Z,95545.00
2018-06-20T12:46:29.033Z,95539.00
2018-06-20T12:49:01.573Z,95544.00
2018-06-20T12:51:33.475Z,95532.00
2018-06-20T12:54:05.914Z,95534.00
2018-06-20T12:56:37.822Z,95529.00
2018-06-20T12:59:09.672Z,95527.00
2018-06-20T13:01:41.475Z,95527.00
2018-06-20T13:04:13.753Z,95525.00
2018-06-20T13:06:45.583Z,95518.00
2018-06-20T13:09:17.460Z,95520.00
2018-06-20T13:11:49.248Z,95517.00
2018-06-20T13:14:21.147Z,95520.00
2018-06-20T13:16:53.822Z,95516.00
2018-06-20T13:19:25.849Z,95511.00
2018-06-20T13:21:57.715Z,95512.00
2018-06-20T13:24:29.577Z,95509.00
2018-06-20T13:27:01.378Z,95505.00
2018-06-20T13:29:33.251Z,95502.00
2018-06-20T13:32:10.226Z,95498.00
2018-06-20T13:34:47.128Z,95500.00
2018-06-20T13:37:23.884Z,95498.00
2018-06-20T13:40:00.892Z,95500.00
2018-06-20T13:42:37.754Z,95494.00
2018-06-20T13:45:14.730Z,95497.00
2018-06-20T13:47:51.656Z,95488.00
2018-06-20T13:50:23.646Z,95493.00
2018-06-20T13:52:55.537Z,95489.00
2018-06-20T13:55:27.402Z,95493.00
2018-06-20T13:57:59.161Z,95487.00
2018-06-20T14:00:31.033Z,95484.00
2018-06-20T14:03:02.826Z,95479.00
2018-06-20T14:05:34.780Z,95483.00
2018-06-20T14:08:06.662Z,95479.00
2018-06-20T14:10:38.633Z,95482.00
2018-06-20T14:13:11.393Z,95484.00
2018-06-20T14:15:43.488Z,95487.00
2018-06-20T14:18:15.767Z,95475.00
2018-06-20T14:20:52.857Z,95479.00
2018-06-20T14:23:24.969Z,95470.00
2018-06-20T14:25:57.675Z,95472.00
2018-06-20T14:28:30.269Z,95471.00
2018-06-20T14:31:07.214Z,95473.00
2018-06-20T14:33:43.994Z,95465.00
2018-06-20T14:36:22.358Z,95466.00
2018-06-20T14:39:00.202Z,95467.00
2018-06-20T14:41:36.073Z,95464.00
2018-06-20T14:44:09.909Z,95472.00
2018-06-20T14:46:41.994Z,95464.00
2018-06-20T14:49:14.078Z,95462.00
2018-06-20T14:51:46.273Z,95467.00
2018-06-20T14:54:18.530Z,95463.00
2018-06-20T14:56:51.025Z,95462.00
2018-06-20T14:59:23.727Z,95460.00
2018-06-20T15:01:56.319Z,95468.00
2018-06-20T15:04:29.385Z,95468.00
2018-06-20T15:07:01.737Z,95465.00
2018-06-20T15:09:33.890Z,95461.00
2018-06-20T15:12:06.239Z,95457.00
2018-06-20T15:14:38.465Z,95457.00
2018-06-20T15:17:15.895Z,95461.00
2018-06-20T15:19:49.079Z,95462.00
2018-06-20T15:22:21.889Z,95464.00
2018-06-20T15:24:54.799Z,95457.00
2018-06-20T15:27:31.526Z,95458.00
2018-06-20T15:30:08.194Z,95456.00
2018-06-20T15:32:45.359Z,95456.00
2018-06-20T15:35:22.543Z,95452.00
2018-06-20T15:37:59.673Z,95453.00
2018-06-20T15:40:31.594Z,95453.00
2018-06-20T15:43:03.687Z,95453.00
2018-06-20T15:45:39.872Z,95458.00
2018-06-20T15:48:11.927Z,95457.00
2018-06-20T15:50:43.899Z,95452.00
2018-06-20T15:53:15.952Z,95453.00
2018-06-20T15:55:47.857Z,95458.00
2018-06-20T15:58:19.843Z,95456.00
2018-06-20T16:00:52.203Z,95456.00
2018-06-20T16:03:24.191Z,95453.00
2018-06-20T16:05:56.173Z,95454.00
2018-06-20T16:08:28.145Z,95456.00
2018-06-20T16:11:00.638Z,95454.00
2018-06-20T16:13:32.533Z,95453.00
2018-06-20T16:16:04.616Z,95455.00
2018-06-20T16:18:36.893Z,95453.00
2018-06-20T16:21:13.873Z,95455.00
2018-06-20T16:23:50.631Z,95462.00
2018-06-20T16:26:27.382Z,95461.00
2018-06-20T16:29:04.979Z,95464.00
2018-06-20T16:31:36.895Z,95460.00
2018-06-20T16:34:08.938Z,95468.00
2018-06-20T16:36:40.868Z,95467.00
2018-06-20T16:39:12.923Z,95467.00
2018-06-20T16:41:44.839Z,95466.00
2018-06-20T16:44:16.812Z,95466.00
2018-06-20T16:46:48.715Z,95462.00
2018-06-20T16:49:20.791Z,95461.00
2018-06-20T16:51:53.815Z,95465.00
2018-06-20T16:54:25.369Z,95465.00
2018-06-20T16:56:57.189Z,95468.00
2018-06-20T16:59:29.202Z,95464.00
2018-06-20T17:02:06.286Z,95463.00
2018-06-20T17:04:38.217Z,95462.00
2018-06-20T17:07:11.556Z,95462.00
2018-06-20T17:09:43.611Z,95465.00
2018-06-20T17:12:20.727Z,95467.00
2018-06-20T17:14:57.712Z,95468.00
2018-06-20T17:17:34.689Z,95472.00
2018-06-20T17:20:11.673Z,95471.00
2018-06-20T17:22:48.451Z,95466.00
2018-06-20T17:25:24.267Z,95470.00
2018-06-20T17:27:56.312Z,95466.00
2018-06-20T17:30:28.173Z,95470.00
2018-06-20T17:33:00.034Z,95463.00
2018-06-20T17:35:31.935Z,95465.00
2018-06-20T17:38:04.454Z,95472.00
2018-06-20T17:40:36.712Z,95475.00
2018-06-20T17:43:08.507Z,95475.00
2018-06-20T17:45:41.923Z,95474.00
2018-06-20T17:48:14.502Z,95475.00
2018-06-20T17:50:46.777Z,95474.00
2018-06-20T17:53:18.142Z,95470.00
2018-06-20T17:55:49.820Z,95468.00
2018-06-20T17:58:21.673Z,95472.00
2018-06-20T18:01:09.153Z,95472.00
2018-06-20T18:03:42.938Z,95472.00
2018-06-20T18:06:19.857Z,95480.00
2018-06-20T18:08:57.535Z,95473.00
2018-06-20T18:11:34.249Z,95474.00
2018-06-20T18:14:11.138Z,95476.00
2018-06-20T18:16:48.092Z,95477.00
2018-06-20T18:19:19.900Z,95479.00
2018-06-20T18:21:51.948Z,95479.00
2018-06-20T18:24:23.776Z,95484.00
2018-06-20T18:26:56.363Z,95481.00
2018-06-20T18:29:28.220Z,95484.00
2018-06-20T18:32:00.093Z,95487.00
2018-06-20T18:34:32.137Z,95483.00
2018-06-20T18:37:04.003Z,95484.00
2018-06-20T18:39:41.275Z,95482.00
2018-06-20T18:42:13.311Z,95487.00
2018-06-20T18:44:45.180Z,95488.00
2018-06-20T18:47:22.195Z,95490.00
2018-06-20T18:49:54.654Z,95496.00
2018-06-20T18:52:26.472Z,95502.00
2018-06-20T18:54:58.496Z,95498.00
2018-06-20T18:57:35.267Z,95500.00
2018-06-20T19:00:13.875Z,95505.00
2018-06-20T19:02:50.826Z,95502.00
2018-06-20T19:06:27.308Z,95503.00
2018-06-20T19:09:02.077Z,95506.00
2018-06-20T19:11:33.916Z,95506.00
2018-06-20T19:14:05.794Z,95507.00
2018-06-20T19:16:37.582Z,95517.00
2018-06-20T19:19:09.452Z,95515.00
2018-06-20T19:21:41.407Z,95516.00
2018-06-20T19:24:14.094Z,95517.00
2018-06-20T19:26:46.035Z,95524.00
2018-06-20T19:29:17.508Z,95524.00
2018-06-20T19:31:49.119Z,95530.00
2018-06-20T19:34:20.732Z,95531.00
2018-06-20T19:36:52.687Z,95539.00
2018-06-20T19:39:29.659Z,95542.00
2018-06-20T19:42:01.464Z,95545.00
2018-06-20T19:44:34.409Z,95543.00
2018-06-20T19:47:07.275Z,95548.00
2018-06-20T19:49:39.227Z,95553.00
2018-06-20T19:52:11.064Z,95554.00
2018-06-20T19:54:42.811Z,95559.00
2018-06-20T19:57:14.451Z,95554.00
2018-06-20T19:59:46.276Z,95554.00
2018-06-20T20:02:24.905Z,95556.00
2018-06-20T20:04:56.816Z,95561.00
2018-06-20T20:07:28.708Z,95565.00
2018-06-20T20:10:00.468Z,95562.00
2018-06-20T20:12:32.536Z,95563.00
2018-06-20T20:15:04.435Z,95567.00
2018-06-20T20:17:36.247Z,95565.00
2018-06-20T20:20:09.306Z,95570.00
2018-06-20T20:22:41.146Z,95566.00
2018-06-20T20:25:13.234Z,95563.00
2018-06-20T20:27:45.020Z,95562.00
2018-06-20T20:30:16.988Z,95567.00
2018-06-20T20:32:48.796Z,95566.00
2018-06-20T20:35:20.734Z,95567.00
2018-06-20T20:37:52.507Z,95567.00
2018-06-20T20:40:24.378Z,95570.00
2018-06-20T20:42:56.197Z,95576.00
2018-06-20T20:45:27.579Z,95578.00
2018-06-20T20:47:59.215Z,95576.00
2018-06-20T20:50:30.742Z,95579.00
2018-06-20T20:53:02.494Z,95588.00
2018-06-20T20:55:35.268Z,95588.00
2018-06-20T20:58:07.114Z,95584.00
2018-06-20T21:00:39.069Z,95582.00
2018-06-20T21:03:11.060Z,95586.00
2018-06-20T21:05:42.916Z,95582.00
2018-06-20T21:08:14.706Z,95575.00
2018-06-20T21:10:46.600Z,95579.00
2018-06-20T21:13:18.624Z,95584.00
2018-06-20T21:15:50.524Z,95582.00
2018-06-20T21:18:22.411Z,95583.00
2018-06-20T21:20:54.280Z,95581.00
2018-06-20T21:23:26.054Z,95584.00
2018-06-20T21:25:58.006Z,95584.00
2018-06-20T21:28:29.849Z,95590.00
2018-06-20T21:31:01.711Z,95586.00
2018-06-20T21:33:33.459Z,95582.00
2018-06-20T21:36:05.460Z,95583.00
2018-06-20T21:38:37.253Z,95583.00
2018-06-20T21:41:09.072Z,95581.00
2018-06-20T21:43:40.947Z,95578.00
2018-06-20T21:46:12.320Z,95578.00
2018-06-20T21:48:43.880Z,95580.00
2018-06-20T21:51:15.799Z,95583.00
2018-06-20T21:53:47.641Z,95579.00
2018-06-20T21:56:19.476Z,95575.00
2018-06-20T21:58:51.456Z,95570.00
2018-06-20T22:01:24.444Z,95568.00
2018-06-20T22:03:56.308Z,95567.00
2018-06-20T22:06:27.719Z,95566.00
2018-06-20T22:08:59.308Z,95565.00
2018-06-20T22:11:37.137Z,95560.00
2018-06-20T22:14:10.093Z,95558.00
2018-06-20T22:16:41.918Z,95561.00
2018-06-20T22:19:13.681Z,95560.00
2018-06-20T22:21:45.538Z,95559.00
2018-06-20T22:24:17.686Z,95556.00
2018-06-20T22:26:49.552Z,95552.00
2018-06-20T22:29:21.386Z,95557.00
2018-06-20T22:31:53.716Z,95558.00
2018-06-20T22:34:25.507Z,95559.00
2018-06-20T22:36:57.362Z,95560.00
2018-06-20T22:39:29.263Z,95562.00
2018-06-20T22:42:01.092Z,95565.00
2018-06-20T22:44:32.889Z,95568.00
2018-06-20T22:47:04.754Z,95576.00
2018-06-20T22:49:36.583Z,95578.00
2018-06-20T22:52:08.441Z,95570.00
2018-06-20T22:54:39.797Z,95567.00
2018-06-20T22:57:11.404Z,95577.00
2018-06-20T22:59:43.194Z,95579.00
2018-06-20T23:02:15.023Z,95580.00
2018-06-20T23:04:46.796Z,95575.00
2018-06-20T23:07:18.645Z,95575.00
2018-06-20T23:09:50.495Z,95571.00
2018-06-20T23:12:22.309Z,95573.00
2018-06-20T23:14:54.056Z,95570.00
2018-06-20T23:17:25.876Z,95562.00
2018-06-20T23:19:57.633Z,95567.00
2018-06-20T23:22:29.411Z,95572.00
2018-06-20T23:25:01.210Z,95570.00
2018-06-20T23:27:33.061Z,95566.00
2018-06-20T23:30:06.467Z,95566.00
2018-06-20T23:32:38.326Z,95573.00
2018-06-20T23:35:11.051Z,95575.00
2018-06-20T23:37:43.194Z,95576.00
2018-06-20T23:40:14.964Z,95574.00
2018-06-20T23:42:46.763Z,95571.00
2018-06-20T23:45:18.530Z,95571.00
2018-06-20T23:47:50.307Z,95570.00
2018-06-20T23:50:22.031Z,95568.00
2018-06-20T23:52:53.796Z,95568.00
2018-06-20T23:55:25.631Z,95564.00
2018-06-20T23:57:57.456Z,95562.00
